sensor_id;sensor_type;location;lat;lon;timestamp;temperature;humidity
16491;DHT22;8356;51.214;3.270;2023-07-29T00:01:40;512.40;2380.80
16491;DHT22;8356;51.214;3.270;2023-07-29T00:04:06;512.30;2380.80
16491;DHT22;8356;51.214;3.270;2023-07-29T00:06:33;512.30;2380.80
16491;DHT22;8356;51.214;3.270;2023-07-29T00:08:59;512.30;2380.80
16491;DHT22;8356;51.214;3.270;2023-07-29T00:11:24;512.30;2380.80
16491;DHT22;8356;51.214;3.270;2023-07-29T00:13:50;512.30;2380.80
16491;DHT22;8356;51.214;3.270;2023-07-29T00:16:16;512.20;2380.80
16491;DHT22;8356;51.214;3.270;2023-07-29T00:18:43;512.20;2380.80
16491;DHT22;8356;51.214;3.270;2023-07-29T00:21:09;512.20;2380.80
16491;DHT22;8356;51.214;3.270;2023-07-29T00:23:34;512.20;2380.80
16491;DHT22;8356;51.214;3.270;2023-07-29T00:26:00;512.20;2380.80
16491;DHT22;8356;51.214;3.270;2023-07-29T00:28:26;512.20;2380.80
16491;DHT22;8356;51.214;3.270;2023-07-29T00:30:51;512.20;2380.80
16491;DHT22;8356;51.214;3.270;2023-07-29T00:33:17;512.10;2380.80
16491;DHT22;8356;51.214;3.270;2023-07-29T00:35:42;512.10;2380.80
16491;DHT22;8356;51.214;3.270;2023-07-29T00:38:08;512.10;2380.80
16491;DHT22;8356;51.214;3.270;2023-07-29T00:40:35;512.20;2380.80
16491;DHT22;8356;51.214;3.270;2023-07-29T00:43:02;512.20;2380.80
16491;DHT22;8356;51.214;3.270;2023-07-29T00:45:29;512.20;2380.80
16491;DHT22;8356;51.214;3.270;2023-07-29T00:47:55;512.20;2380.80
16491;DHT22;8356;51.214;3.270;2023-07-29T00:50:21;512.20;2380.80
16491;DHT22;8356;51.214;3.270;2023-07-29T00:52:50;512.10;2380.80
16491;DHT22;8356;51.214;3.270;2023-07-29T00:55:16;512.20;2380.80
16491;DHT22;8356;51.214;3.270;2023-07-29T00:57:42;512.10;2380.80
16491;DHT22;8356;51.214;3.270;2023-07-29T01:00:08;512.10;2380.80
16491;DHT22;8356;51.214;3.270;2023-07-29T01:02:35;512.10;2380.80
16491;DHT22;8356;51.214;3.270;2023-07-29T01:05:01;512.00;2380.80
16491;DHT22;8356;51.214;3.270;2023-07-29T01:07:44;512.10;2380.80
16491;DHT22;8356;51.214;3.270;2023-07-29T01:13:53;512.10;2380.80
16491;DHT22;8356;51.214;3.270;2023-07-29T01:16:04;512.10;2380.80
16491;DHT22;8356;51.214;3.270;2023-07-29T01:18:36;512.00;2380.80
16491;DHT22;8356;51.214;3.270;2023-07-29T01:21:04;512.00;2380.80
16491;DHT22;8356;51.214;3.270;2023-07-29T01:23:34;512.00;2380.80
16491;DHT22;8356;51.214;3.270;2023-07-29T01:26:01;512.10;2380.80
16491;DHT22;8356;51.214;3.270;2023-07-29T01:28:27;512.10;2380.80
16491;DHT22;8356;51.214;3.270;2023-07-29T01:33:39;512.10;2380.80
16491;DHT22;8356;51.214;3.270;2023-07-29T01:36:18;512.00;2380.80
16491;DHT22;8356;51.214;3.270;2023-07-29T01:38:47;512.00;2380.80
16491;DHT22;8356;51.214;3.270;2023-07-29T01:41:13;512.00;2380.80
16491;DHT22;8356;51.214;3.270;2023-07-29T01:43:40;487.20;2380.80
16491;DHT22;8356;51.214;3.270;2023-07-29T01:46:12;512.00;2380.80
16491;DHT22;8356;51.214;3.270;2023-07-29T01:48:39;512.00;2380.80
16491;DHT22;8356;51.214;3.270;2023-07-29T01:51:05;487.30;2380.80
16491;DHT22;8356;51.214;3.270;2023-07-29T01:53:31;487.30;2380.80
16491;DHT22;8356;51.214;3.270;2023-07-29T01:55:57;487.30;2380.80
16491;DHT22;8356;51.214;3.270;2023-07-29T01:58:23;487.30;2380.80
16491;DHT22;8356;51.214;3.270;2023-07-29T02:00:49;487.20;2380.80
16491;DHT22;8356;51.214;3.270;2023-07-29T02:03:15;487.20;2380.80
16491;DHT22;8356;51.214;3.270;2023-07-29T02:05:40;487.20;2380.80
16491;DHT22;8356;51.214;3.270;2023-07-29T02:08:09;487.20;2380.80
16491;DHT22;8356;51.214;3.270;2023-07-29T02:10:34;487.10;2380.80
16491;DHT22;8356;51.214;3.270;2023-07-29T02:13:00;487.10;2380.80
16491;DHT22;8356;51.214;3.270;2023-07-29T02:15:26;487.10;2380.80
16491;DHT22;8356;51.214;3.270;2023-07-29T02:17:51;487.10;2380.80
16491;DHT22;8356;51.214;3.270;2023-07-29T02:20:17;487.00;2380.80
16491;DHT22;8356;51.214;3.270;2023-07-29T02:22:43;487.20;2380.80
16491;DHT22;8356;51.214;3.270;2023-07-29T02:25:08;487.00;2380.80
16491;DHT22;8356;51.214;3.270;2023-07-29T02:27:35;487.00;2380.80
16491;DHT22;8356;51.214;3.270;2023-07-29T02:30:01;487.00;2380.80
16491;DHT22;8356;51.214;3.270;2023-07-29T02:32:27;487.00;2380.80
16491;DHT22;8356;51.214;3.270;2023-07-29T02:34:52;487.00;2380.80
16491;DHT22;8356;51.214;3.270;2023-07-29T02:37:18;487.00;2380.80
16491;DHT22;8356;51.214;3.270;2023-07-29T02:39:44;487.10;2380.80
16491;DHT22;8356;51.214;3.270;2023-07-29T02:42:09;487.10;2380.80
16491;DHT22;8356;51.214;3.270;2023-07-29T02:44:35;487.00;2380.80
16491;DHT22;8356;51.214;3.270;2023-07-29T02:47:01;487.00;2380.80
16491;DHT22;8356;51.214;3.270;2023-07-29T02:49:26;487.00;2380.80
16491;DHT22;8356;51.214;3.270;2023-07-29T02:51:52;487.00;2380.80
16491;DHT22;8356;51.214;3.270;2023-07-29T02:54:18;486.90;2380.80
16491;DHT22;8356;51.214;3.270;2023-07-29T02:56:43;486.80;2380.80
16491;DHT22;8356;51.214;3.270;2023-07-29T02:59:09;487.00;2380.80
16491;DHT22;8356;51.214;3.270;2023-07-29T03:01:34;487.00;2380.80
16491;DHT22;8356;51.214;3.270;2023-07-29T03:04:00;487.00;2380.80
16491;DHT22;8356;51.214;3.270;2023-07-29T03:06:26;487.00;2380.80
16491;DHT22;8356;51.214;3.270;2023-07-29T03:08:52;487.00;2380.80
16491;DHT22;8356;51.214;3.270;2023-07-29T03:11:17;487.00;2380.80
16491;DHT22;8356;51.214;3.270;2023-07-29T03:13:43;487.00;2380.80
16491;DHT22;8356;51.214;3.270;2023-07-29T03:16:14;487.00;2380.80
16491;DHT22;8356;51.214;3.270;2023-07-29T03:18:40;487.00;2380.80
16491;DHT22;8356;51.214;3.270;2023-07-29T03:21:06;487.00;2380.80
16491;DHT22;8356;51.214;3.270;2023-07-29T03:23:33;487.00;2380.80
16491;DHT22;8356;51.214;3.270;2023-07-29T03:26:00;487.00;2380.80
16491;DHT22;8356;51.214;3.270;2023-07-29T03:28:29;486.90;2380.80
16491;DHT22;8356;51.214;3.270;2023-07-29T03:30:58;487.00;2380.80
16491;DHT22;8356;51.214;3.270;2023-07-29T03:33:25;487.00;2380.80
16491;DHT22;8356;51.214;3.270;2023-07-29T03:35:51;487.00;2380.80
16491;DHT22;8356;51.214;3.270;2023-07-29T03:38:17;487.00;2380.80
16491;DHT22;8356;51.214;3.270;2023-07-29T03:40:43;487.00;2380.80
16491;DHT22;8356;51.214;3.270;2023-07-29T03:43:09;487.00;2380.80
16491;DHT22;8356;51.214;3.270;2023-07-29T03:45:35;487.10;2380.80
16491;DHT22;8356;51.214;3.270;2023-07-29T03:48:02;487.00;2380.80
16491;DHT22;8356;51.214;3.270;2023-07-29T03:50:28;487.00;2380.80
16491;DHT22;8356;51.214;3.270;2023-07-29T03:52:54;512.30;2380.80
16491;DHT22;8356;51.214;3.270;2023-07-29T03:55:20;487.00;2380.80
16491;DHT22;8356;51.214;3.270;2023-07-29T03:57:46;487.00;2380.80
16491;DHT22;8356;51.214;3.270;2023-07-29T04:00:12;487.00;2380.80
16491;DHT22;8356;51.214;3.270;2023-07-29T04:02:37;487.00;2380.80
16491;DHT22;8356;51.214;3.270;2023-07-29T04:05:05;487.00;2380.80
16491;DHT22;8356;51.214;3.270;2023-07-29T04:07:31;487.00;2380.80
16491;DHT22;8356;51.214;3.270;2023-07-29T04:09:57;487.00;2380.80
16491;DHT22;8356;51.214;3.270;2023-07-29T04:12:23;487.00;2380.80
16491;DHT22;8356;51.214;3.270;2023-07-29T04:14:49;487.00;2380.80
16491;DHT22;8356;51.214;3.270;2023-07-29T04:17:15;487.00;2380.80
16491;DHT22;8356;51.214;3.270;2023-07-29T04:19:40;487.00;2380.80
16491;DHT22;8356;51.214;3.270;2023-07-29T04:22:06;487.00;2380.80
16491;DHT22;8356;51.214;3.270;2023-07-29T04:24:32;487.00;2380.80
16491;DHT22;8356;51.214;3.270;2023-07-29T04:26:57;487.00;2380.80
16491;DHT22;8356;51.214;3.270;2023-07-29T04:29:23;487.00;2380.80
16491;DHT22;8356;51.214;3.270;2023-07-29T04:31:52;487.00;2380.80
16491;DHT22;8356;51.214;3.270;2023-07-29T04:34:18;487.00;2380.80
16491;DHT22;8356;51.214;3.270;2023-07-29T04:36:45;487.00;2380.80
16491;DHT22;8356;51.214;3.270;2023-07-29T04:39:11;486.90;2380.80
16491;DHT22;8356;51.214;3.270;2023-07-29T04:41:36;486.90;2380.80
16491;DHT22;8356;51.214;3.270;2023-07-29T04:44:02;487.00;2380.80
16491;DHT22;8356;51.214;3.270;2023-07-29T04:46:28;487.00;2380.80
16491;DHT22;8356;51.214;3.270;2023-07-29T04:48:53;487.00;2380.80
16491;DHT22;8356;51.214;3.270;2023-07-29T04:51:19;487.00;2380.80
16491;DHT22;8356;51.214;3.270;2023-07-29T04:53:45;487.00;2380.80
16491;DHT22;8356;51.214;3.270;2023-07-29T04:56:10;487.10;2380.80
16491;DHT22;8356;51.214;3.270;2023-07-29T04:58:36;487.10;2380.80
16491;DHT22;8356;51.214;3.270;2023-07-29T05:01:03;487.20;2380.80
16491;DHT22;8356;51.214;3.270;2023-07-29T05:03:29;487.20;2380.80
16491;DHT22;8356;51.214;3.270;2023-07-29T05:05:55;487.20;2380.80
16491;DHT22;8356;51.214;3.270;2023-07-29T05:08:21;487.20;2380.80
16491;DHT22;8356;51.214;3.270;2023-07-29T05:10:51;487.30;2380.80
16491;DHT22;8356;51.214;3.270;2023-07-29T05:13:18;512.00;2380.80
16491;DHT22;8356;51.214;3.270;2023-07-29T05:15:44;512.00;2380.80
16491;DHT22;8356;51.214;3.270;2023-07-29T05:18:09;512.00;2380.80
16491;DHT22;8356;51.214;3.270;2023-07-29T05:20:35;512.00;2380.80
16491;DHT22;8356;51.214;3.270;2023-07-29T05:23:00;512.10;2380.80
16491;DHT22;8356;51.214;3.270;2023-07-29T05:25:26;512.10;2380.80
16491;DHT22;8356;51.214;3.270;2023-07-29T05:27:52;512.10;2380.80
16491;DHT22;8356;51.214;3.270;2023-07-29T05:30:18;512.10;2380.80
16491;DHT22;8356;51.214;3.270;2023-07-29T05:32:44;512.10;2380.80
16491;DHT22;8356;51.214;3.270;2023-07-29T05:35:09;512.10;2380.80
16491;DHT22;8356;51.214;3.270;2023-07-29T05:37:38;512.10;2380.80
16491;DHT22;8356;51.214;3.270;2023-07-29T05:40:05;512.10;2380.80
16491;DHT22;8356;51.214;3.270;2023-07-29T05:42:32;512.10;2380.80
16491;DHT22;8356;51.214;3.270;2023-07-29T05:44:58;512.10;2380.80
16491;DHT22;8356;51.214;3.270;2023-07-29T05:47:24;512.10;2380.80
16491;DHT22;8356;51.214;3.270;2023-07-29T05:49:49;512.10;2380.80
16491;DHT22;8356;51.214;3.270;2023-07-29T05:52:15;512.20;2380.80
16491;DHT22;8356;51.214;3.270;2023-07-29T05:54:41;512.20;2380.80
16491;DHT22;8356;51.214;3.270;2023-07-29T05:57:09;512.20;2380.80
16491;DHT22;8356;51.214;3.270;2023-07-29T05:59:35;512.10;2380.80
16491;DHT22;8356;51.214;3.270;2023-07-29T06:02:00;512.30;2380.80
16491;DHT22;8356;51.214;3.270;2023-07-29T06:04:26;512.20;2380.80
16491;DHT22;8356;51.214;3.270;2023-07-29T06:06:51;512.30;2380.80
16491;DHT22;8356;51.214;3.270;2023-07-29T06:09:17;512.30;2380.80
16491;DHT22;8356;51.214;3.270;2023-07-29T06:11:43;512.30;2380.80
16491;DHT22;8356;51.214;3.270;2023-07-29T06:14:08;512.40;2380.80
16491;DHT22;8356;51.214;3.270;2023-07-29T06:16:34;512.50;2380.80
16491;DHT22;8356;51.214;3.270;2023-07-29T06:19:00;512.60;2380.80
16491;DHT22;8356;51.214;3.270;2023-07-29T06:21:25;512.80;2380.80
16491;DHT22;8356;51.214;3.270;2023-07-29T06:23:51;512.80;2380.80
16491;DHT22;8356;51.214;3.270;2023-07-29T06:26:17;512.90;2380.80
16491;DHT22;8356;51.214;3.270;2023-07-29T06:28:42;512.90;2380.80
16491;DHT22;8356;51.214;3.270;2023-07-29T06:31:08;512.90;2380.80
16491;DHT22;8356;51.214;3.270;2023-07-29T06:33:34;512.90;2380.80
16491;DHT22;8356;51.214;3.270;2023-07-29T06:35:59;512.90;2380.80
16491;DHT22;8356;51.214;3.270;2023-07-29T06:38:25;512.90;2380.80
16491;DHT22;8356;51.214;3.270;2023-07-29T06:40:51;512.90;2380.80
16491;DHT22;8356;51.214;3.270;2023-07-29T06:43:17;512.90;2380.80
16491;DHT22;8356;51.214;3.270;2023-07-29T06:45:42;537.60;2406.40
16491;DHT22;8356;51.214;3.270;2023-07-29T06:48:08;537.70;2406.40
16491;DHT22;8356;51.214;3.270;2023-07-29T06:50:34;537.80;2406.40
16491;DHT22;8356;51.214;3.270;2023-07-29T06:52:59;537.90;2406.40
16491;DHT22;8356;51.214;3.270;2023-07-29T06:55:25;538.00;2406.40
16491;DHT22;8356;51.214;3.270;2023-07-29T06:57:51;538.10;2406.40
16491;DHT22;8356;51.214;3.270;2023-07-29T07:00:16;538.20;2406.40
16491;DHT22;8356;51.214;3.270;2023-07-29T07:02:42;538.30;2406.40
16491;DHT22;8356;51.214;3.270;2023-07-29T07:05:08;538.30;2406.40
16491;DHT22;8356;51.214;3.270;2023-07-29T07:07:34;538.30;2406.40
16491;DHT22;8356;51.214;3.270;2023-07-29T07:09:59;538.50;2406.40
16491;DHT22;8356;51.214;3.270;2023-07-29T07:12:25;563.20;2432.00
16491;DHT22;8356;51.214;3.270;2023-07-29T07:14:51;563.20;2432.00
16491;DHT22;8356;51.214;3.270;2023-07-29T07:17:16;563.40;2432.00
16491;DHT22;8356;51.214;3.270;2023-07-29T07:19:42;563.60;2432.00
16491;DHT22;8356;51.214;3.270;2023-07-29T07:22:08;563.90;2432.00
16491;DHT22;8356;51.214;3.270;2023-07-29T07:24:33;564.10;2432.00
16491;DHT22;8356;51.214;3.270;2023-07-29T07:26:59;564.10;2432.00
16491;DHT22;8356;51.214;3.270;2023-07-29T07:29:25;588.80;2432.00
16491;DHT22;8356;51.214;3.270;2023-07-29T07:31:52;588.90;2432.00
16491;DHT22;8356;51.214;3.270;2023-07-29T07:34:18;588.90;2432.00
16491;DHT22;8356;51.214;3.270;2023-07-29T07:36:44;589.00;2432.00
16491;DHT22;8356;51.214;3.270;2023-07-29T07:39:10;589.00;2432.00
16491;DHT22;8356;51.214;3.270;2023-07-29T07:41:35;589.40;2432.00
16491;DHT22;8356;51.214;3.270;2023-07-29T07:44:01;589.60;2432.00
16491;DHT22;8356;51.214;3.270;2023-07-29T07:46:28;589.70;2432.00
16491;DHT22;8356;51.214;3.270;2023-07-29T07:48:54;589.70;2432.00
16491;DHT22;8356;51.214;3.270;2023-07-29T07:51:19;589.60;2432.00
16491;DHT22;8356;51.214;3.270;2023-07-29T07:53:45;589.60;2432.00
16491;DHT22;8356;51.214;3.270;2023-07-29T07:56:11;589.70;2432.00
16491;DHT22;8356;51.214;3.270;2023-07-29T07:58:37;589.60;2432.00
16491;DHT22;8356;51.214;3.270;2023-07-29T08:01:04;589.60;2432.00
16491;DHT22;8356;51.214;3.270;2023-07-29T08:03:30;589.50;2432.00
16491;DHT22;8356;51.214;3.270;2023-07-29T08:05:56;589.40;2432.00
16491;DHT22;8356;51.214;3.270;2023-07-29T08:08:22;589.30;2432.00
16491;DHT22;8356;51.214;3.270;2023-07-29T08:10:47;589.30;2432.00
16491;DHT22;8356;51.214;3.270;2023-07-29T08:13:13;589.30;2432.00
16491;DHT22;8356;51.214;3.270;2023-07-29T08:15:39;589.40;2432.00
16491;DHT22;8356;51.214;3.270;2023-07-29T08:18:06;589.60;2432.00
16491;DHT22;8356;51.214;3.270;2023-07-29T08:20:32;589.70;2432.00
16491;DHT22;8356;51.214;3.270;2023-07-29T08:22:58;614.40;2432.00
16491;DHT22;8356;51.214;3.270;2023-07-29T08:25:24;614.40;2432.00
16491;DHT22;8356;51.214;3.270;2023-07-29T08:27:49;589.70;2432.00
16491;DHT22;8356;51.214;3.270;2023-07-29T08:30:15;589.70;2432.00
16491;DHT22;8356;51.214;3.270;2023-07-29T08:32:41;589.50;2432.00
16491;DHT22;8356;51.214;3.270;2023-07-29T08:35:07;589.40;2432.00
16491;DHT22;8356;51.214;3.270;2023-07-29T08:37:33;589.10;2432.00
16491;DHT22;8356;51.214;3.270;2023-07-29T08:39:59;589.00;2432.00
16491;DHT22;8356;51.214;3.270;2023-07-29T08:42:29;588.90;2432.00
16491;DHT22;8356;51.214;3.270;2023-07-29T08:44:56;564.00;2432.00
16491;DHT22;8356;51.214;3.270;2023-07-29T08:47:25;563.90;2432.00
16491;DHT22;8356;51.214;3.270;2023-07-29T08:49:52;563.80;2432.00
16491;DHT22;8356;51.214;3.270;2023-07-29T08:52:18;563.70;2432.00
16491;DHT22;8356;51.214;3.270;2023-07-29T08:54:44;563.60;2432.00
16491;DHT22;8356;51.214;3.270;2023-07-29T08:57:10;563.40;2432.00
16491;DHT22;8356;51.214;3.270;2023-07-29T08:59:36;563.20;2432.00
16491;DHT22;8356;51.214;3.270;2023-07-29T09:02:03;563.20;2432.00
16491;DHT22;8356;51.214;3.270;2023-07-29T09:04:29;538.50;2406.40
16491;DHT22;8356;51.214;3.270;2023-07-29T09:06:56;538.30;2406.40
16491;DHT22;8356;51.214;3.270;2023-07-29T09:09:22;538.30;2406.40
16491;DHT22;8356;51.214;3.270;2023-07-29T09:11:48;538.10;2406.40
16491;DHT22;8356;51.214;3.270;2023-07-29T09:14:14;538.00;2406.40
16491;DHT22;8356;51.214;3.270;2023-07-29T09:16:40;537.90;2406.40
16491;DHT22;8356;51.214;3.270;2023-07-29T09:19:06;537.90;2406.40
16491;DHT22;8356;51.214;3.270;2023-07-29T09:21:32;537.90;2406.40
16491;DHT22;8356;51.214;3.270;2023-07-29T09:24:03;537.90;2406.40
16491;DHT22;8356;51.214;3.270;2023-07-29T09:26:29;538.10;2406.40
16491;DHT22;8356;51.214;3.270;2023-07-29T09:28:58;538.10;2406.40
16491;DHT22;8356;51.214;3.270;2023-07-29T09:31:26;538.10;2406.40
16491;DHT22;8356;51.214;3.270;2023-07-29T09:34:00;538.10;2406.40
16491;DHT22;8356;51.214;3.270;2023-07-29T09:36:26;538.00;2406.40
16491;DHT22;8356;51.214;3.270;2023-07-29T09:38:53;537.90;2406.40
16491;DHT22;8356;51.214;3.270;2023-07-29T09:41:22;537.90;2406.40
16491;DHT22;8356;51.214;3.270;2023-07-29T09:43:55;538.00;2406.40
16491;DHT22;8356;51.214;3.270;2023-07-29T09:46:24;538.10;2406.40
16491;DHT22;8356;51.214;3.270;2023-07-29T09:48:53;538.10;2406.40
16491;DHT22;8356;51.214;3.270;2023-07-29T09:51:21;538.10;2406.40
16491;DHT22;8356;51.214;3.270;2023-07-29T09:53:49;537.90;2406.40
16491;DHT22;8356;51.214;3.270;2023-07-29T09:56:15;537.90;2406.40
16491;DHT22;8356;51.214;3.270;2023-07-29T09:58:44;537.90;2406.40
16491;DHT22;8356;51.214;3.270;2023-07-29T10:01:11;537.90;2406.40
16491;DHT22;8356;51.214;3.270;2023-07-29T10:03:37;537.90;2406.40
16491;DHT22;8356;51.214;3.270;2023-07-29T10:06:04;538.20;2406.40
16491;DHT22;8356;51.214;3.270;2023-07-29T10:08:31;563.40;2432.00
16491;DHT22;8356;51.214;3.270;2023-07-29T10:11:06;563.70;2432.00
16491;DHT22;8356;51.214;3.270;2023-07-29T10:13:33;563.90;2432.00
16491;DHT22;8356;51.214;3.270;2023-07-29T10:15:59;563.90;2432.00
16491;DHT22;8356;51.214;3.270;2023-07-29T10:18:29;563.90;2432.00
16491;DHT22;8356;51.214;3.270;2023-07-29T10:20:57;563.90;2432.00
16491;DHT22;8356;51.214;3.270;2023-07-29T10:23:25;564.00;2432.00
16491;DHT22;8356;51.214;3.270;2023-07-29T10:26:11;564.10;2432.00
16491;DHT22;8356;51.214;3.270;2023-07-29T10:28:40;588.80;2432.00
16491;DHT22;8356;51.214;3.270;2023-07-29T10:31:06;588.80;2432.00
16491;DHT22;8356;51.214;3.270;2023-07-29T10:33:33;588.80;2432.00
16491;DHT22;8356;51.214;3.270;2023-07-29T10:36:00;589.00;2432.00
16491;DHT22;8356;51.214;3.270;2023-07-29T10:38:26;589.00;2432.00
16491;DHT22;8356;51.214;3.270;2023-07-29T10:40:55;588.80;2432.00
16491;DHT22;8356;51.214;3.270;2023-07-29T10:43:33;589.20;2432.00
16491;DHT22;8356;51.214;3.270;2023-07-29T10:46:21;589.10;2432.00
16491;DHT22;8356;51.214;3.270;2023-07-29T10:51:26;589.10;2432.00
16491;DHT22;8356;51.214;3.270;2023-07-29T10:53:54;589.40;2432.00
16491;DHT22;8356;51.214;3.270;2023-07-29T10:56:35;614.50;2432.00
16491;DHT22;8356;51.214;3.270;2023-07-29T11:01:58;640.00;2432.00
16491;DHT22;8356;51.214;3.270;2023-07-29T11:04:26;640.30;2432.00
16491;DHT22;8356;51.214;3.270;2023-07-29T11:15:14;615.30;2432.00
16491;DHT22;8356;51.214;3.270;2023-07-29T11:17:53;640.20;2432.00
16491;DHT22;8356;51.214;3.270;2023-07-29T11:20:21;640.60;2432.00
16491;DHT22;8356;51.214;3.270;2023-07-29T11:22:48;640.90;2432.00
16491;DHT22;8356;51.214;3.270;2023-07-29T11:25:16;665.90;2432.00
16491;DHT22;8356;51.214;3.270;2023-07-29T11:27:42;666.00;2432.00
16491;DHT22;8356;51.214;3.270;2023-07-29T11:30:10;640.90;2432.00
16491;DHT22;8356;51.214;3.270;2023-07-29T11:32:37;665.60;2432.00
16491;DHT22;8356;51.214;3.270;2023-07-29T11:35:11;665.60;2432.00
16491;DHT22;8356;51.214;3.270;2023-07-29T11:37:39;665.60;2432.00
16491;DHT22;8356;51.214;3.270;2023-07-29T11:40:05;665.70;2432.00
16491;DHT22;8356;51.214;3.270;2023-07-29T11:42:33;665.70;2432.00
16491;DHT22;8356;51.214;3.270;2023-07-29T11:45:02;640.90;2432.00
16491;DHT22;8356;51.214;3.270;2023-07-29T11:47:29;665.60;2432.00
16491;DHT22;8356;51.214;3.270;2023-07-29T11:49:58;665.90;2432.00
16491;DHT22;8356;51.214;3.270;2023-07-29T11:52:26;666.00;2432.00
16491;DHT22;8356;51.214;3.270;2023-07-29T11:54:53;666.20;2432.00
16491;DHT22;8356;51.214;3.270;2023-07-29T11:57:19;666.00;2432.00
16491;DHT22;8356;51.214;3.270;2023-07-29T11:59:46;640.80;2432.00
16491;DHT22;8356;51.214;3.270;2023-07-29T12:02:16;666.00;2432.00
16491;DHT22;8356;51.214;3.270;2023-07-29T12:04:44;666.20;2432.00
16491;DHT22;8356;51.214;3.270;2023-07-29T12:07:13;666.20;2432.00
16491;DHT22;8356;51.214;3.270;2023-07-29T12:09:39;666.00;2432.00
16491;DHT22;8356;51.214;3.270;2023-07-29T12:12:06;666.50;2432.00
16491;DHT22;8356;51.214;3.270;2023-07-29T12:14:32;691.20;2432.00
16491;DHT22;8356;51.214;3.270;2023-07-29T12:17:03;666.50;2432.00
16491;DHT22;8356;51.214;3.270;2023-07-29T12:19:33;691.50;2432.00
16491;DHT22;8356;51.214;3.270;2023-07-29T12:22:03;691.60;2432.00
16491;DHT22;8356;51.214;3.270;2023-07-29T12:24:30;691.20;2432.00
16491;DHT22;8356;51.214;3.270;2023-07-29T12:26:56;666.30;2432.00
16491;DHT22;8356;51.214;3.270;2023-07-29T12:29:22;665.90;2432.00
16491;DHT22;8356;51.214;3.270;2023-07-29T12:31:48;640.90;2432.00
16491;DHT22;8356;51.214;3.270;2023-07-29T12:34:21;640.50;2432.00
16491;DHT22;8356;51.214;3.270;2023-07-29T12:36:50;640.10;2432.00
16491;DHT22;8356;51.214;3.270;2023-07-29T12:39:26;615.20;2432.00
16491;DHT22;8356;51.214;3.270;2023-07-29T12:41:56;615.00;2432.00
16491;DHT22;8356;51.214;3.270;2023-07-29T12:44:29;614.70;2432.00
16491;DHT22;8356;51.214;3.270;2023-07-29T12:46:55;589.60;2432.00
16491;DHT22;8356;51.214;3.270;2023-07-29T12:49:21;589.40;2432.00
16491;DHT22;8356;51.214;3.270;2023-07-29T12:51:47;589.30;2432.00
16491;DHT22;8356;51.214;3.270;2023-07-29T12:54:13;589.20;2432.00
16491;DHT22;8356;51.214;3.270;2023-07-29T12:56:39;589.10;2432.00
16491;DHT22;8356;51.214;3.270;2023-07-29T12:59:05;589.00;2432.00
16491;DHT22;8356;51.214;3.270;2023-07-29T13:01:31;589.30;2432.00
16491;DHT22;8356;51.214;3.270;2023-07-29T13:03:57;589.50;2432.00
16491;DHT22;8356;51.214;3.270;2023-07-29T13:06:23;589.50;2432.00
16491;DHT22;8356;51.214;3.270;2023-07-29T13:08:48;589.50;2432.00
16491;DHT22;8356;51.214;3.270;2023-07-29T13:11:15;589.60;2432.00
16491;DHT22;8356;51.214;3.270;2023-07-29T13:13:41;589.70;2432.00
16491;DHT22;8356;51.214;3.270;2023-07-29T13:16:06;614.70;2432.00
16491;DHT22;8356;51.214;3.270;2023-07-29T13:18:33;615.00;2432.00
16491;DHT22;8356;51.214;3.270;2023-07-29T13:20:59;615.20;2432.00
16491;DHT22;8356;51.214;3.270;2023-07-29T13:23:26;640.00;2432.00
16491;DHT22;8356;51.214;3.270;2023-07-29T13:25:51;640.00;2432.00
16491;DHT22;8356;51.214;3.270;2023-07-29T13:28:17;640.30;2432.00
16491;DHT22;8356;51.214;3.270;2023-07-29T13:30:44;640.40;2432.00
16491;DHT22;8356;51.214;3.270;2023-07-29T13:33:10;640.50;2432.00
16491;DHT22;8356;51.214;3.270;2023-07-29T13:35:35;640.50;2432.00
16491;DHT22;8356;51.214;3.270;2023-07-29T13:38:02;640.20;2432.00
16491;DHT22;8356;51.214;3.270;2023-07-29T13:40:28;640.20;2432.00
16491;DHT22;8356;51.214;3.270;2023-07-29T13:42:54;640.20;2432.00
16491;DHT22;8356;51.214;3.270;2023-07-29T13:45:20;615.30;2432.00
16491;DHT22;8356;51.214;3.270;2023-07-29T13:47:45;640.00;2432.00
16491;DHT22;8356;51.214;3.270;2023-07-29T13:50:11;615.30;2432.00
16491;DHT22;8356;51.214;3.270;2023-07-29T13:52:38;615.20;2432.00
16491;DHT22;8356;51.214;3.270;2023-07-29T13:55:04;615.20;2432.00
16491;DHT22;8356;51.214;3.270;2023-07-29T13:57:30;640.80;2432.00
16491;DHT22;8356;51.214;3.270;2023-07-29T13:59:56;640.00;2432.00
16491;DHT22;8356;51.214;3.270;2023-07-29T14:02:22;615.30;2432.00
16491;DHT22;8356;51.214;3.270;2023-07-29T14:04:47;615.10;2432.00
16491;DHT22;8356;51.214;3.270;2023-07-29T14:07:13;615.30;2432.00
16491;DHT22;8356;51.214;3.270;2023-07-29T14:09:39;640.30;2432.00
16491;DHT22;8356;51.214;3.270;2023-07-29T14:12:06;640.50;2432.00
16491;DHT22;8356;51.214;3.270;2023-07-29T14:14:32;640.70;2432.00
16491;DHT22;8356;51.214;3.270;2023-07-29T14:16:57;640.80;2432.00
16491;DHT22;8356;51.214;3.270;2023-07-29T14:19:23;665.60;2432.00
16491;DHT22;8356;51.214;3.270;2023-07-29T14:21:49;665.60;2432.00
16491;DHT22;8356;51.214;3.270;2023-07-29T14:24:15;640.90;2432.00
16491;DHT22;8356;51.214;3.270;2023-07-29T14:26:42;640.80;2432.00
16491;DHT22;8356;51.214;3.270;2023-07-29T14:29:07;640.80;2432.00
16491;DHT22;8356;51.214;3.270;2023-07-29T14:31:33;640.80;2432.00
16491;DHT22;8356;51.214;3.270;2023-07-29T14:33:59;640.90;2432.00
16491;DHT22;8356;51.214;3.270;2023-07-29T14:36:25;665.60;2432.00
16491;DHT22;8356;51.214;3.270;2023-07-29T14:38:51;665.60;2432.00
16491;DHT22;8356;51.214;3.270;2023-07-29T14:41:17;640.90;2432.00
16491;DHT22;8356;51.214;3.270;2023-07-29T14:43:42;640.80;2432.00
16491;DHT22;8356;51.214;3.270;2023-07-29T14:46:08;640.80;2432.00
16491;DHT22;8356;51.214;3.270;2023-07-29T14:48:33;640.70;2432.00
16491;DHT22;8356;51.214;3.270;2023-07-29T14:50:59;640.50;2432.00
16491;DHT22;8356;51.214;3.270;2023-07-29T14:53:25;640.40;2432.00
16491;DHT22;8356;51.214;3.270;2023-07-29T14:55:50;640.30;2432.00
16491;DHT22;8356;51.214;3.270;2023-07-29T14:58:16;640.20;2432.00
16491;DHT22;8356;51.214;3.270;2023-07-29T15:00:42;640.20;2432.00
16491;DHT22;8356;51.214;3.270;2023-07-29T15:03:08;640.10;2432.00
16491;DHT22;8356;51.214;3.270;2023-07-29T15:05:33;640.00;2432.00
16491;DHT22;8356;51.214;3.270;2023-07-29T15:07:59;640.10;2432.00
16491;DHT22;8356;51.214;3.270;2023-07-29T15:10:25;640.00;2432.00
16491;DHT22;8356;51.214;3.270;2023-07-29T15:12:51;615.30;2432.00
16491;DHT22;8356;51.214;3.270;2023-07-29T15:15:16;615.20;2432.00
16491;DHT22;8356;51.214;3.270;2023-07-29T15:17:42;615.30;2432.00
16491;DHT22;8356;51.214;3.270;2023-07-29T15:20:08;615.20;2432.00